VPCOH PAKT-EKVG
Flight info
| Callsign | VPCOH |
|---|---|
| Flight time | N/A |
| Altitude | 33000 |
| Route | SKOWL2 DOOZI DCT MUXAT DCT LEXOX/N0458F350 DCT YCO DCT 70N110W 72N100W/N0464F370 74N090W 75N080W/M079F370 DCT SAVIS DCT 74N040W 72N030W/M080F390 69N020W 65N010W DCT MY |
| Aircraft | B738/M-SDE2E3FGHIRWXY/LB1 |
Departure
| Time | 2026-04-27 16:17 |
|---|---|
| Airport | Ketchikan International Airport (PAKT) |
Arrival
| Time | N/A |
|---|---|
| Airport | Vágar Airport (EKVG) |
| Time | Latitude | Longitude | Altitude | Speed | Heading |
|---|---|---|---|---|---|
| 2026-04-27 15:40 | 55.35634 | -131.70986 | 41 ft | 0 kts | 45° |
| 2026-04-27 16:04 | 55.35634 | -131.70987 | 41 ft | 1 kts | 45° |
| 2026-04-27 16:04 | 55.35627 | -131.70999 | 40 ft | 1 kts | 45° |
| 2026-04-27 16:04 | 55.35620 | -131.71011 | 41 ft | 1 kts | 45° |
| 2026-04-27 16:05 | 55.35613 | -131.71024 | 39 ft | 1 kts | 45° |
| 2026-04-27 16:05 | 55.35607 | -131.71036 | 41 ft | 1 kts | 45° |
| 2026-04-27 16:05 | 55.35600 | -131.71048 | 41 ft | 1 kts | 45° |
| 2026-04-27 16:05 | 55.35593 | -131.71060 | 37 ft | 1 kts | 45° |
| 2026-04-27 16:06 | 55.35586 | -131.71072 | 40 ft | 1 kts | 51° |
| 2026-04-27 16:06 | 55.35582 | -131.71084 | 40 ft | 1 kts | 79° |
| 2026-04-27 16:06 | 55.35581 | -131.71099 | 39 ft | 1 kts | 117° |
| 2026-04-27 16:06 | 55.35586 | -131.71112 | 39 ft | 1 kts | 136° |
| 2026-04-27 16:09 | 55.35571 | -131.71087 | 41 ft | 5 kts | 136° |
| 2026-04-27 16:10 | 55.35507 | -131.70978 | 38 ft | 7 kts | 135° |
| 2026-04-27 16:10 | 55.35435 | -131.70853 | 41 ft | 9 kts | 135° |
| 2026-04-27 16:11 | 55.35393 | -131.70780 | 47 ft | 8 kts | 136° |
| 2026-04-27 16:11 | 55.35312 | -131.70643 | 55 ft | 8 kts | 136° |
| 2026-04-27 16:12 | 55.35233 | -131.70515 | 73 ft | 7 kts | 138° |
| 2026-04-27 16:12 | 55.35196 | -131.70456 | 85 ft | 7 kts | 138° |
| 2026-04-27 16:12 | 55.35125 | -131.70340 | 93 ft | 7 kts | 137° |
| 2026-04-27 16:13 | 55.35090 | -131.70285 | 99 ft | 7 kts | 138° |
| 2026-04-27 16:13 | 55.35021 | -131.70176 | 99 ft | 7 kts | 138° |
| 2026-04-27 16:13 | 55.34981 | -131.70113 | 99 ft | 9 kts | 137° |
| 2026-04-27 16:14 | 55.34875 | -131.70046 | 100 ft | 8 kts | 216° |
| 2026-04-27 16:14 | 55.34797 | -131.70086 | 99 ft | 9 kts | 129° |
| 2026-04-27 16:15 | 55.34707 | -131.69939 | 98 ft | 9 kts | 162° |
| 2026-04-27 16:15 | 55.34708 | -131.69912 | 98 ft | 5 kts | 295° |
| 2026-04-27 16:16 | 55.34718 | -131.69932 | 98 ft | 0 kts | 317° |
| 2026-04-27 16:16 | 55.35309 | -131.70952 | 98 ft | 134 kts | 316° |
| 2026-04-27 16:17 | 55.36952 | -131.73767 | 1656 ft | 165 kts | 315° |
| 2026-04-27 16:17 | 55.38687 | -131.76823 | 3062 ft | 192 kts | 317° |
| 2026-04-27 16:18 | 55.40745 | -131.80578 | 3786 ft | 232 kts | 315° |
| 2026-04-27 16:18 | 55.43094 | -131.85003 | 5116 ft | 252 kts | 314° |
| 2026-04-27 16:19 | 55.44297 | -131.87276 | 5926 ft | 256 kts | 313° |
| 2026-04-27 16:19 | 55.45506 | -131.89560 | 6681 ft | 261 kts | 313° |
| 2026-04-27 16:20 | 55.49273 | -131.96691 | 8993 ft | 271 kts | 312° |
| 2026-04-27 16:20 | 55.50570 | -131.99149 | 9768 ft | 274 kts | 312° |
| 2026-04-27 16:20 | 55.53280 | -132.04296 | 10571 ft | 307 kts | 312° |
| 2026-04-27 16:21 | 55.54786 | -132.07162 | 10748 ft | 329 kts | 312° |
| 2026-04-27 16:21 | 55.60780 | -132.14714 | 12029 ft | 367 kts | 334° |
| 2026-04-27 16:22 | 55.63273 | -132.15795 | 12732 ft | 374 kts | 354° |
| 2026-04-27 16:22 | 55.68394 | -132.13870 | 14036 ft | 389 kts | 20° |
| 2026-04-27 16:22 | 55.70902 | -132.11991 | 14604 ft | 393 kts | 21° |
| 2026-04-27 16:23 | 55.73420 | -132.10040 | 15189 ft | 396 kts | 21° |
| 2026-04-27 16:23 | 55.78525 | -132.06074 | 16347 ft | 403 kts | 21° |
| 2026-04-27 16:23 | 55.81109 | -132.04083 | 16918 ft | 407 kts | 21° |
| 2026-04-27 16:24 | 55.83722 | -132.02083 | 17483 ft | 410 kts | 21° |
| 2026-04-27 16:24 | 55.89015 | -131.98050 | 18533 ft | 417 kts | 21° |
| 2026-04-27 16:25 | 55.94394 | -131.93954 | 19500 ft | 423 kts | 21° |
| 2026-04-27 16:25 | 55.99804 | -131.89826 | 20398 ft | 429 kts | 21° |
| 2026-04-27 16:26 | 56.05333 | -131.85593 | 21298 ft | 434 kts | 21° |
| 2026-04-27 16:26 | 56.10937 | -131.81290 | 22141 ft | 440 kts | 21° |
| 2026-04-27 16:27 | 56.16612 | -131.76918 | 22968 ft | 446 kts | 21° |
| 2026-04-27 16:27 | 56.25197 | -131.70276 | 24051 ft | 453 kts | 20° |
| 2026-04-27 16:28 | 56.31022 | -131.65751 | 24707 ft | 458 kts | 20° |
| 2026-04-27 16:28 | 56.36919 | -131.61155 | 25312 ft | 463 kts | 20° |
| 2026-04-27 16:29 | 56.45835 | -131.54177 | 26173 ft | 470 kts | 20° |
| 2026-04-27 16:30 | 56.51870 | -131.49432 | 26744 ft | 473 kts | 20° |
| 2026-04-27 16:30 | 56.57897 | -131.44677 | 27249 ft | 478 kts | 20° |
| 2026-04-27 16:31 | 56.67060 | -131.37415 | 28329 ft | 477 kts | 20° |
| 2026-04-27 16:31 | 56.73151 | -131.32566 | 29020 ft | 477 kts | 20° |
| 2026-04-27 16:32 | 56.79225 | -131.27713 | 29784 ft | 475 kts | 20° |
| 2026-04-27 16:32 | 56.82221 | -131.25315 | 30109 ft | 476 kts | 20° |
| 2026-04-27 16:33 | 56.88288 | -131.20443 | 30739 ft | 474 kts | 20° |
| 2026-04-27 16:33 | 56.91315 | -131.18005 | 31083 ft | 472 kts | 20° |
| 2026-04-27 16:33 | 56.94296 | -131.15601 | 31371 ft | 472 kts | 20° |
| 2026-04-27 16:33 | 56.97300 | -131.13174 | 31664 ft | 471 kts | 20° |
| 2026-04-27 16:34 | 57.00304 | -131.10743 | 31983 ft | 470 kts | 20° |
| 2026-04-27 16:34 | 57.03304 | -131.08310 | 32294 ft | 469 kts | 20° |
| 2026-04-27 16:34 | 57.06293 | -131.05883 | 32544 ft | 469 kts | 20° |
| 2026-04-27 16:34 | 57.09277 | -131.03456 | 32825 ft | 468 kts | 20° |
| 2026-04-27 16:35 | 57.12255 | -131.01027 | 33073 ft | 467 kts | 20° |
| 2026-04-27 16:35 | 57.15235 | -130.98596 | 33039 ft | 470 kts | 20° |
| 2026-04-27 16:36 | 57.24155 | -130.91286 | 33043 ft | 467 kts | 20° |
| 2026-04-27 16:36 | 57.30097 | -130.86393 | 33042 ft | 466 kts | 20° |
| 2026-04-27 16:37 | 57.35978 | -130.81536 | 33034 ft | 465 kts | 20° |
| 2026-04-27 16:37 | 57.41884 | -130.76641 | 33037 ft | 465 kts | 20° |
| 2026-04-27 16:38 | 57.47800 | -130.71720 | 33027 ft | 465 kts | 20° |
| 2026-04-27 16:38 | 57.53688 | -130.66804 | 33031 ft | 466 kts | 20° |
| 2026-04-27 16:39 | 57.59631 | -130.61825 | 33026 ft | 468 kts | 20° |
| 2026-04-27 16:39 | 57.65528 | -130.56714 | 33015 ft | 471 kts | 24° |
| 2026-04-27 16:40 | 57.71287 | -130.50764 | 33018 ft | 474 kts | 26° |
| 2026-04-27 16:40 | 57.77011 | -130.44588 | 33016 ft | 475 kts | 26° |
| 2026-04-27 16:41 | 57.82722 | -130.38452 | 33015 ft | 476 kts | 26° |
| 2026-04-27 16:41 | 57.88489 | -130.32302 | 32995 ft | 477 kts | 26° |
| 2026-04-27 16:42 | 57.94271 | -130.26139 | 32999 ft | 476 kts | 26° |
| 2026-04-27 16:42 | 58.00036 | -130.19973 | 32999 ft | 476 kts | 26° |
| 2026-04-27 16:43 | 58.05796 | -130.13788 | 32996 ft | 475 kts | 26° |
| 2026-04-27 16:43 | 58.11508 | -130.07631 | 32987 ft | 475 kts | 26° |
| 2026-04-27 16:44 | 58.17172 | -130.01490 | 32960 ft | 453 kts | 22° |
| 2026-04-27 16:44 | 58.19865 | -129.98549 | 32967 ft | 441 kts | 22° |
| 2026-04-27 16:44 | 58.22518 | -129.95658 | 32972 ft | 440 kts | 22° |
| 2026-04-27 16:45 | 58.27876 | -129.89843 | 32988 ft | 447 kts | 22° |
| 2026-04-27 16:45 | 58.33303 | -129.83928 | 32971 ft | 450 kts | 22° |
| 2026-04-27 16:46 | 58.38687 | -129.78017 | 32967 ft | 449 kts | 22° |
| 2026-04-27 16:46 | 58.44099 | -129.72051 | 32982 ft | 448 kts | 22° |
| 2026-04-27 16:47 | 58.49501 | -129.66076 | 32980 ft | 448 kts | 22° |
| 2026-04-27 16:47 | 58.54899 | -129.60086 | 32971 ft | 448 kts | 22° |
| 2026-04-27 16:48 | 58.60251 | -129.54127 | 32983 ft | 446 kts | 22° |
| 2026-04-27 16:48 | 58.65626 | -129.48120 | 32985 ft | 446 kts | 22° |
| 2026-04-27 16:49 | 58.73658 | -129.39104 | 32981 ft | 445 kts | 22° |
| 2026-04-27 16:49 | 58.78973 | -129.33113 | 32964 ft | 444 kts | 22° |
| 2026-04-27 16:50 | 58.84294 | -129.27089 | 32971 ft | 443 kts | 22° |
| 2026-04-27 16:50 | 58.89603 | -129.21060 | 32972 ft | 443 kts | 22° |
| 2026-04-27 16:51 | 58.94885 | -129.15041 | 32979 ft | 442 kts | 22° |
| 2026-04-27 16:51 | 59.00191 | -129.08973 | 32973 ft | 442 kts | 22° |
| 2026-04-27 16:52 | 59.05496 | -129.02881 | 32953 ft | 441 kts | 22° |
| 2026-04-27 16:52 | 59.10749 | -128.96828 | 32954 ft | 440 kts | 22° |
| 2026-04-27 16:53 | 59.16016 | -128.90737 | 32964 ft | 440 kts | 22° |
| 2026-04-27 16:53 | 59.21277 | -128.84632 | 32968 ft | 440 kts | 22° |
| 2026-04-27 16:54 | 59.26515 | -128.78534 | 32953 ft | 441 kts | 22° |
| 2026-04-27 16:54 | 59.31784 | -128.72375 | 32971 ft | 441 kts | 22° |
| 2026-04-27 16:55 | 59.37068 | -128.66175 | 32957 ft | 442 kts | 23° |
| 2026-04-27 16:55 | 59.42335 | -128.59970 | 32964 ft | 442 kts | 23° |
| 2026-04-27 16:56 | 59.47599 | -128.53749 | 32969 ft | 441 kts | 23° |
| 2026-04-27 16:56 | 59.52862 | -128.47504 | 32977 ft | 441 kts | 23° |
| 2026-04-27 16:57 | 59.58084 | -128.41286 | 32979 ft | 440 kts | 23° |
| 2026-04-27 16:57 | 59.63323 | -128.35025 | 32979 ft | 439 kts | 23° |
| 2026-04-27 16:58 | 59.68541 | -128.28766 | 32987 ft | 438 kts | 23° |
| 2026-04-27 16:58 | 59.73747 | -128.22498 | 32988 ft | 437 kts | 24° |
| 2026-04-27 16:59 | 59.78937 | -128.16227 | 32990 ft | 436 kts | 24° |
| 2026-04-27 16:59 | 59.84084 | -128.09985 | 32995 ft | 436 kts | 24° |
| 2026-04-27 17:00 | 59.91855 | -128.00518 | 33006 ft | 435 kts | 24° |
| 2026-04-27 17:01 | 59.96990 | -127.94233 | 32995 ft | 436 kts | 24° |
| 2026-04-27 17:01 | 60.02160 | -127.87882 | 33001 ft | 436 kts | 24° |
| 2026-04-27 17:02 | 60.07341 | -127.81495 | 33000 ft | 437 kts | 25° |
| 2026-04-27 17:02 | 60.12527 | -127.75077 | 33003 ft | 439 kts | 25° |
| 2026-04-27 17:03 | 60.17728 | -127.68613 | 32999 ft | 439 kts | 25° |
| 2026-04-27 17:03 | 60.22910 | -127.62150 | 33008 ft | 441 kts | 25° |
| 2026-04-27 17:04 | 60.28130 | -127.55617 | 32999 ft | 442 kts | 25° |
| 2026-04-27 17:04 | 60.32472 | -127.50162 | 32996 ft | 442 kts | 25° |
| 2026-04-27 17:05 | 60.37708 | -127.43561 | 33000 ft | 443 kts | 26° |
| 2026-04-27 17:05 | 60.42920 | -127.36967 | 32998 ft | 444 kts | 26° |
| 2026-04-27 17:06 | 60.48158 | -127.30311 | 32985 ft | 445 kts | 26° |
| 2026-04-27 17:06 | 60.53411 | -127.23612 | 32989 ft | 445 kts | 26° |
| 2026-04-27 17:07 | 60.58667 | -127.16882 | 32999 ft | 446 kts | 26° |
| 2026-04-27 17:07 | 60.63884 | -127.10178 | 32994 ft | 446 kts | 27° |
| 2026-04-27 17:08 | 60.69132 | -127.03406 | 32999 ft | 446 kts | 27° |
| 2026-04-27 17:08 | 60.74383 | -126.96606 | 32991 ft | 447 kts | 27° |
| 2026-04-27 17:09 | 60.79638 | -126.89772 | 33000 ft | 447 kts | 27° |
| 2026-04-27 17:09 | 60.84856 | -126.82960 | 32987 ft | 447 kts | 27° |
| 2026-04-27 17:10 | 60.90114 | -126.76068 | 32996 ft | 448 kts | 28° |
| 2026-04-27 17:10 | 60.95303 | -126.69240 | 32993 ft | 448 kts | 28° |
| 2026-04-27 17:11 | 61.00561 | -126.62294 | 32986 ft | 448 kts | 28° |
| 2026-04-27 17:11 | 61.08441 | -126.51831 | 32977 ft | 448 kts | 28° |
| 2026-04-27 17:12 | 61.16282 | -126.41358 | 32983 ft | 448 kts | 28° |
| 2026-04-27 17:13 | 61.21526 | -126.34319 | 32978 ft | 449 kts | 28° |
| 2026-04-27 17:13 | 61.26767 | -126.27255 | 32971 ft | 449 kts | 28° |
| 2026-04-27 17:14 | 61.32008 | -126.20163 | 32975 ft | 448 kts | 29° |
| 2026-04-27 17:14 | 61.37210 | -126.13094 | 32961 ft | 449 kts | 29° |
| 2026-04-27 17:15 | 61.42439 | -126.05960 | 32967 ft | 449 kts | 29° |
| 2026-04-27 17:15 | 61.47666 | -125.98800 | 32969 ft | 449 kts | 29° |
| 2026-04-27 17:16 | 61.52866 | -125.91649 | 32960 ft | 449 kts | 29° |
| 2026-04-27 17:16 | 61.58098 | -125.84423 | 32968 ft | 449 kts | 29° |
| 2026-04-27 17:17 | 61.63288 | -125.77227 | 32962 ft | 449 kts | 29° |
| 2026-04-27 17:17 | 61.68493 | -125.69979 | 32961 ft | 448 kts | 29° |
| 2026-04-27 17:18 | 61.76287 | -125.59071 | 32958 ft | 448 kts | 30° |
| 2026-04-27 17:18 | 61.81474 | -125.51774 | 32953 ft | 448 kts | 30° |
| 2026-04-27 17:19 | 61.86663 | -125.44445 | 32956 ft | 448 kts | 30° |
| 2026-04-27 17:19 | 61.91842 | -125.37099 | 32937 ft | 447 kts | 30° |
| 2026-04-27 17:20 | 61.97007 | -125.29741 | 32936 ft | 447 kts | 30° |
| 2026-04-27 17:20 | 62.02180 | -125.22344 | 32929 ft | 447 kts | 30° |
| 2026-04-27 17:21 | 62.07316 | -125.14968 | 32927 ft | 447 kts | 30° |
| 2026-04-27 17:21 | 62.12466 | -125.07540 | 32939 ft | 447 kts | 30° |
| 2026-04-27 17:22 | 62.17625 | -125.00069 | 32933 ft | 447 kts | 30° |
| 2026-04-27 17:22 | 62.22780 | -124.92573 | 32935 ft | 447 kts | 30° |
| 2026-04-27 17:23 | 62.27896 | -124.85102 | 32936 ft | 448 kts | 30° |
| 2026-04-27 17:23 | 62.33048 | -124.77545 | 32936 ft | 448 kts | 30° |
| 2026-04-27 17:24 | 62.38205 | -124.69952 | 32941 ft | 449 kts | 30° |
| 2026-04-27 17:24 | 62.43364 | -124.62321 | 32949 ft | 449 kts | 30° |
| 2026-04-27 17:25 | 62.48524 | -124.54657 | 32964 ft | 450 kts | 31° |
| 2026-04-27 17:25 | 62.53653 | -124.47007 | 32963 ft | 450 kts | 31° |
| 2026-04-27 17:26 | 62.58800 | -124.39295 | 32978 ft | 450 kts | 31° |
| 2026-04-27 17:26 | 62.63958 | -124.31534 | 32996 ft | 450 kts | 31° |
| 2026-04-27 17:27 | 62.69121 | -124.23733 | 32986 ft | 451 kts | 31° |
| 2026-04-27 17:27 | 62.74275 | -124.15915 | 33303 ft | 455 kts | 31° |
| 2026-04-27 17:28 | 62.76869 | -124.11964 | 33653 ft | 453 kts | 31° |
| 2026-04-27 17:28 | 62.79450 | -124.08024 | 33918 ft | 453 kts | 31° |
| 2026-04-27 17:28 | 62.84592 | -124.00153 | 34254 ft | 455 kts | 32° |
| 2026-04-27 17:29 | 62.87194 | -123.96157 | 34432 ft | 456 kts | 32° |
| 2026-04-27 17:29 | 62.89796 | -123.92153 | 34633 ft | 456 kts | 32° |
| 2026-04-27 17:29 | 62.92359 | -123.88198 | 34827 ft | 456 kts | 32° |
| 2026-04-27 17:29 | 62.94952 | -123.84187 | 34980 ft | 456 kts | 32° |
| 2026-04-27 17:30 | 62.97562 | -123.80145 | 34990 ft | 459 kts | 32° |
| 2026-04-27 17:30 | 63.05396 | -123.67949 | 35006 ft | 458 kts | 32° |
| 2026-04-27 17:31 | 63.10565 | -123.59857 | 35003 ft | 457 kts | 32° |
| 2026-04-27 17:31 | 63.15750 | -123.51706 | 35008 ft | 456 kts | 32° |
| 2026-04-27 17:32 | 63.23527 | -123.39512 | 35007 ft | 456 kts | 31° |
| 2026-04-27 17:33 | 63.28806 | -123.31840 | 35012 ft | 456 kts | 30° |
| 2026-04-27 17:33 | 63.34153 | -123.24173 | 35019 ft | 457 kts | 30° |
| 2026-04-27 17:34 | 63.39497 | -123.16414 | 35018 ft | 459 kts | 30° |
| 2026-04-27 17:34 | 63.44847 | -123.08555 | 35019 ft | 460 kts | 31° |
| 2026-04-27 17:35 | 63.50199 | -123.00638 | 35015 ft | 462 kts | 31° |
| 2026-04-27 17:35 | 63.55527 | -122.92718 | 35021 ft | 463 kts | 31° |
| 2026-04-27 17:36 | 63.60919 | -122.84667 | 35017 ft | 464 kts | 31° |
| 2026-04-27 17:36 | 63.66275 | -122.76634 | 35023 ft | 465 kts | 31° |
| 2026-04-27 17:37 | 63.71660 | -122.68522 | 35015 ft | 465 kts | 31° |
| 2026-04-27 17:37 | 63.77046 | -122.60369 | 35033 ft | 466 kts | 31° |
| 2026-04-27 17:38 | 63.82428 | -122.52186 | 35018 ft | 466 kts | 31° |
| 2026-04-27 17:38 | 63.87772 | -122.44019 | 35034 ft | 466 kts | 31° |
| 2026-04-27 17:39 | 63.93153 | -122.35761 | 35024 ft | 466 kts | 32° |
| 2026-04-27 17:39 | 63.98528 | -122.27473 | 35035 ft | 466 kts | 32° |
| 2026-04-27 17:40 | 64.03891 | -122.19162 | 35037 ft | 466 kts | 32° |
| 2026-04-27 17:40 | 64.09220 | -122.10865 | 35031 ft | 466 kts | 32° |
| 2026-04-27 17:41 | 64.14577 | -122.02487 | 35041 ft | 466 kts | 32° |
| 2026-04-27 17:41 | 64.19936 | -121.94064 | 35045 ft | 467 kts | 32° |
| 2026-04-27 17:42 | 64.25295 | -121.85602 | 35049 ft | 467 kts | 32° |
| 2026-04-27 17:42 | 64.30654 | -121.77097 | 35050 ft | 468 kts | 32° |
| 2026-04-27 17:43 | 64.35984 | -121.68599 | 35056 ft | 468 kts | 32° |
| 2026-04-27 17:43 | 64.41350 | -121.60004 | 35058 ft | 469 kts | 32° |
| 2026-04-27 17:44 | 64.46725 | -121.51351 | 35057 ft | 470 kts | 33° |
| 2026-04-27 17:44 | 64.52074 | -121.42696 | 35063 ft | 471 kts | 33° |
| 2026-04-27 17:45 | 64.57416 | -121.34011 | 35059 ft | 471 kts | 33° |
| 2026-04-27 17:45 | 64.62788 | -121.25235 | 35065 ft | 472 kts | 33° |
| 2026-04-27 17:46 | 64.68161 | -121.16415 | 35069 ft | 472 kts | 33° |
| 2026-04-27 17:46 | 64.73533 | -121.07552 | 35065 ft | 472 kts | 33° |
| 2026-04-27 17:47 | 64.78879 | -120.98687 | 35067 ft | 473 kts | 33° |
| 2026-04-27 17:47 | 64.84247 | -120.89742 | 35070 ft | 473 kts | 34° |
| 2026-04-27 17:48 | 64.89619 | -120.80746 | 35073 ft | 473 kts | 34° |
| 2026-04-27 17:48 | 64.94915 | -120.71833 | 35073 ft | 472 kts | 34° |
| 2026-04-27 17:49 | 65.00266 | -120.62782 | 35075 ft | 472 kts | 34° |
| 2026-04-27 17:49 | 65.05611 | -120.53696 | 35077 ft | 472 kts | 34° |
| 2026-04-27 17:50 | 65.10927 | -120.44612 | 35073 ft | 473 kts | 34° |
| 2026-04-27 17:50 | 65.18925 | -120.30861 | 35075 ft | 473 kts | 34° |
| 2026-04-27 17:51 | 65.24260 | -120.21631 | 35082 ft | 473 kts | 34° |
| 2026-04-27 17:51 | 65.29559 | -120.12415 | 35080 ft | 474 kts | 34° |
| 2026-04-27 17:52 | 65.34890 | -120.03096 | 35077 ft | 474 kts | 34° |
| 2026-04-27 17:52 | 65.39320 | -119.95315 | 35087 ft | 475 kts | 35° |
| 2026-04-27 17:53 | 65.45525 | -119.84361 | 35088 ft | 475 kts | 35° |
| 2026-04-27 17:53 | 65.50854 | -119.74901 | 35090 ft | 475 kts | 35° |
| 2026-04-27 17:54 | 65.55283 | -119.67001 | 35093 ft | 476 kts | 35° |
| 2026-04-27 17:54 | 65.60603 | -119.57466 | 35098 ft | 476 kts | 35° |
| 2026-04-27 17:55 | 65.65931 | -119.47868 | 35095 ft | 477 kts | 35° |
| 2026-04-27 17:55 | 65.71223 | -119.38282 | 35103 ft | 477 kts | 35° |
| 2026-04-27 17:56 | 65.76551 | -119.28582 | 35100 ft | 477 kts | 35° |
| 2026-04-27 17:56 | 65.81867 | -119.18853 | 35105 ft | 477 kts | 36° |
| 2026-04-27 17:57 | 65.87142 | -119.09147 | 35113 ft | 477 kts | 36° |
| 2026-04-27 17:57 | 65.92439 | -118.99349 | 35114 ft | 478 kts | 36° |
| 2026-04-27 17:58 | 65.97742 | -118.89487 | 35113 ft | 478 kts | 36° |
| 2026-04-27 17:58 | 66.03042 | -118.79577 | 35120 ft | 478 kts | 36° |
| 2026-04-27 17:59 | 66.08328 | -118.69643 | 35121 ft | 477 kts | 36° |
| 2026-04-27 17:59 | 66.13575 | -118.59726 | 35128 ft | 477 kts | 36° |
| 2026-04-27 18:00 | 66.18850 | -118.49704 | 35134 ft | 477 kts | 36° |
| 2026-04-27 18:00 | 66.24109 | -118.39659 | 35133 ft | 477 kts | 36° |
| 2026-04-27 18:01 | 66.29335 | -118.29623 | 35136 ft | 477 kts | 36° |
| 2026-04-27 18:01 | 66.34592 | -118.19472 | 35141 ft | 477 kts | 36° |
| 2026-04-27 18:02 | 66.39820 | -118.09321 | 35143 ft | 478 kts | 36° |
| 2026-04-27 18:02 | 66.45067 | -117.99078 | 35147 ft | 478 kts | 36° |
| 2026-04-27 18:03 | 66.50280 | -117.88847 | 35147 ft | 478 kts | 36° |
| 2026-04-27 18:03 | 66.55507 | -117.78530 | 35154 ft | 478 kts | 37° |
| 2026-04-27 18:04 | 66.60749 | -117.68127 | 35152 ft | 478 kts | 37° |
| 2026-04-27 18:04 | 66.65978 | -117.57693 | 35155 ft | 479 kts | 37° |
| 2026-04-27 18:05 | 66.71185 | -117.47244 | 35166 ft | 479 kts | 37° |
| 2026-04-27 18:05 | 66.76383 | -117.36756 | 35162 ft | 479 kts | 37° |
| 2026-04-27 18:06 | 66.81604 | -117.26160 | 35154 ft | 479 kts | 37° |
| 2026-04-27 18:06 | 66.86777 | -117.15606 | 35155 ft | 479 kts | 37° |
| 2026-04-27 18:07 | 66.91971 | -117.04948 | 35161 ft | 479 kts | 37° |
| 2026-04-27 18:07 | 66.97156 | -116.94247 | 35156 ft | 479 kts | 37° |
| 2026-04-27 18:08 | 67.02331 | -116.83507 | 35147 ft | 478 kts | 37° |
| 2026-04-27 18:08 | 67.07468 | -116.72786 | 35141 ft | 478 kts | 37° |
| 2026-04-27 18:09 | 67.12625 | -116.61962 | 35145 ft | 478 kts | 37° |
| 2026-04-27 18:09 | 67.17770 | -116.51102 | 35151 ft | 478 kts | 37° |
| 2026-04-27 18:10 | 67.22881 | -116.40254 | 35133 ft | 478 kts | 38° |
| 2026-04-27 18:10 | 67.28017 | -116.29287 | 35136 ft | 478 kts | 38° |
| 2026-04-27 18:11 | 67.33150 | -116.18266 | 35131 ft | 478 kts | 38° |
| 2026-04-27 18:11 | 67.38233 | -116.07287 | 35130 ft | 478 kts | 38° |
| 2026-04-27 18:12 | 67.43342 | -115.96190 | 35124 ft | 478 kts | 38° |
| 2026-04-27 18:12 | 67.48455 | -115.85019 | 35122 ft | 478 kts | 38° |
| 2026-04-27 18:13 | 67.53556 | -115.73809 | 35122 ft | 479 kts | 38° |
| 2026-04-27 18:13 | 67.58651 | -115.62548 | 35117 ft | 479 kts | 38° |
| 2026-04-27 18:14 | 67.63709 | -115.51301 | 35115 ft | 479 kts | 38° |
| 2026-04-27 18:14 | 67.68793 | -115.39930 | 35112 ft | 479 kts | 38° |
| 2026-04-27 18:15 | 67.73873 | -115.28501 | 35110 ft | 480 kts | 38° |
| 2026-04-27 18:15 | 67.78946 | -115.17026 | 35112 ft | 480 kts | 38° |
| 2026-04-27 18:16 | 67.83998 | -115.05640 | 35112 ft | 479 kts | 36° |
| 2026-04-27 18:16 | 67.89247 | -114.94776 | 35111 ft | 479 kts | 34° |
| 2026-04-27 18:17 | 67.94540 | -114.84044 | 35107 ft | 479 kts | 35° |
| 2026-04-27 18:17 | 67.99816 | -114.73173 | 35108 ft | 479 kts | 35° |
| 2026-04-27 18:18 | 68.05066 | -114.62191 | 35119 ft | 481 kts | 35° |
| 2026-04-27 18:18 | 68.07701 | -114.56640 | 35253 ft | 482 kts | 36° |
| 2026-04-27 18:18 | 68.10328 | -114.51086 | 35537 ft | 480 kts | 36° |
| 2026-04-27 18:19 | 68.12941 | -114.45541 | 35846 ft | 478 kts | 36° |
| 2026-04-27 18:19 | 68.15541 | -114.40012 | 36060 ft | 477 kts | 36° |
| 2026-04-27 18:19 | 68.18140 | -114.34471 | 36249 ft | 477 kts | 36° |
| 2026-04-27 18:19 | 68.20745 | -114.28901 | 36420 ft | 478 kts | 36° |
| 2026-04-27 18:20 | 68.23345 | -114.23327 | 36618 ft | 478 kts | 36° |
| 2026-04-27 18:20 | 68.25944 | -114.17740 | 36829 ft | 477 kts | 36° |
| 2026-04-27 18:20 | 68.28533 | -114.12153 | 37029 ft | 476 kts | 36° |
| 2026-04-27 18:20 | 68.31119 | -114.06561 | 37100 ft | 478 kts | 36° |
| 2026-04-27 18:21 | 68.36317 | -113.95267 | 37103 ft | 479 kts | 36° |
| 2026-04-27 18:21 | 68.41486 | -113.83962 | 37093 ft | 476 kts | 36° |
| 2026-04-27 18:22 | 68.46623 | -113.72659 | 37096 ft | 474 kts | 36° |
| 2026-04-27 18:22 | 68.51703 | -113.61419 | 37095 ft | 472 kts | 36° |
| 2026-04-27 18:23 | 68.56790 | -113.50095 | 37099 ft | 472 kts | 36° |
| 2026-04-27 18:23 | 68.61870 | -113.38720 | 37102 ft | 472 kts | 37° |
| 2026-04-27 18:24 | 68.66953 | -113.27267 | 37107 ft | 473 kts | 37° |
| 2026-04-27 18:24 | 68.72037 | -113.15743 | 37110 ft | 475 kts | 37° |
| 2026-04-27 18:25 | 68.77141 | -113.04102 | 37103 ft | 476 kts | 37° |
| 2026-04-27 18:25 | 68.82244 | -112.92390 | 37102 ft | 478 kts | 37° |
| 2026-04-27 18:26 | 68.87356 | -112.80585 | 37100 ft | 479 kts | 37° |
| 2026-04-27 18:26 | 68.92476 | -112.68685 | 37096 ft | 480 kts | 37° |
| 2026-04-27 18:27 | 68.97589 | -112.56731 | 37099 ft | 481 kts | 37° |
| 2026-04-27 18:27 | 69.02665 | -112.44786 | 37096 ft | 481 kts | 37° |
| 2026-04-27 18:28 | 69.07767 | -112.32703 | 37097 ft | 480 kts | 37° |
| 2026-04-27 18:28 | 69.12855 | -112.20580 | 37092 ft | 480 kts | 37° |
| 2026-04-27 18:29 | 69.17925 | -112.08422 | 37096 ft | 479 kts | 38° |
| 2026-04-27 18:29 | 69.22980 | -111.96222 | 37096 ft | 478 kts | 38° |
| 2026-04-27 18:30 | 69.28019 | -111.83989 | 37088 ft | 478 kts | 38° |
| 2026-04-27 18:30 | 69.33038 | -111.71720 | 37084 ft | 477 kts | 38° |
| 2026-04-27 18:31 | 69.38041 | -111.59401 | 37083 ft | 476 kts | 38° |
| 2026-04-27 18:31 | 69.43029 | -111.47037 | 37088 ft | 476 kts | 38° |
| 2026-04-27 18:32 | 69.47977 | -111.34699 | 37080 ft | 476 kts | 38° |
| 2026-04-27 18:32 | 69.52941 | -111.22240 | 37083 ft | 476 kts | 38° |
| 2026-04-27 18:33 | 69.57909 | -111.09694 | 37083 ft | 476 kts | 38° |
| 2026-04-27 18:33 | 69.62870 | -110.97080 | 37083 ft | 477 kts | 39° |
| 2026-04-27 18:34 | 69.67826 | -110.84400 | 37078 ft | 477 kts | 39° |
| 2026-04-27 18:34 | 69.72781 | -110.71638 | 37080 ft | 478 kts | 39° |
| 2026-04-27 18:35 | 69.77728 | -110.58811 | 37080 ft | 478 kts | 39° |
| 2026-04-27 18:35 | 69.82673 | -110.45907 | 37076 ft | 479 kts | 39° |
| 2026-04-27 18:36 | 69.87610 | -110.32935 | 37080 ft | 479 kts | 39° |
| 2026-04-27 18:36 | 69.92544 | -110.19887 | 37079 ft | 479 kts | 39° |
| 2026-04-27 18:37 | 69.97463 | -110.06801 | 37078 ft | 479 kts | 39° |
| 2026-04-27 18:37 | 70.02006 | -109.92679 | 37088 ft | 483 kts | 51° |
| 2026-04-27 18:38 | 70.05947 | -109.76753 | 37083 ft | 483 kts | 52° |
| 2026-04-27 18:38 | 70.09818 | -109.60655 | 37083 ft | 483 kts | 52° |
| 2026-04-27 18:39 | 70.13712 | -109.44563 | 37085 ft | 483 kts | 52° |
| 2026-04-27 18:39 | 70.17614 | -109.28485 | 37081 ft | 483 kts | 52° |
| 2026-04-27 18:40 | 70.21516 | -109.12343 | 37084 ft | 483 kts | 52° |
| 2026-04-27 18:40 | 70.25401 | -108.96148 | 37077 ft | 483 kts | 52° |
| 2026-04-27 18:41 | 70.29266 | -108.79903 | 37082 ft | 483 kts | 52° |
| 2026-04-27 18:41 | 70.33115 | -108.63599 | 37073 ft | 483 kts | 53° |
| 2026-04-27 18:42 | 70.35656 | -108.52768 | 37082 ft | 483 kts | 53° |
| 2026-04-27 18:42 | 70.40776 | -108.30773 | 37078 ft | 483 kts | 53° |
| 2026-04-27 18:43 | 70.44558 | -108.14384 | 37076 ft | 483 kts | 53° |
| 2026-04-27 18:43 | 70.48355 | -107.97802 | 37071 ft | 483 kts | 53° |
| 2026-04-27 18:44 | 70.52135 | -107.81164 | 37071 ft | 483 kts | 53° |
| 2026-04-27 18:44 | 70.55291 | -107.67172 | 37084 ft | 483 kts | 53° |
| 2026-04-27 18:45 | 70.59043 | -107.50424 | 37077 ft | 484 kts | 54° |
| 2026-04-27 18:45 | 70.63390 | -107.30853 | 37078 ft | 484 kts | 54° |
| 2026-04-27 18:46 | 70.66485 | -107.16807 | 37075 ft | 484 kts | 54° |
| 2026-04-27 18:46 | 70.70200 | -106.99827 | 37075 ft | 484 kts | 54° |
| 2026-04-27 18:47 | 70.73895 | -106.82803 | 37074 ft | 484 kts | 54° |
| 2026-04-27 18:47 | 70.77576 | -106.65705 | 37077 ft | 484 kts | 54° |
| 2026-04-27 18:48 | 70.81249 | -106.48512 | 37070 ft | 485 kts | 55° |
| 2026-04-27 18:48 | 70.84904 | -106.31261 | 37072 ft | 485 kts | 55° |
| 2026-04-27 18:49 | 70.88541 | -106.13954 | 37074 ft | 485 kts | 55° |
| 2026-04-27 18:49 | 70.92164 | -105.96580 | 37073 ft | 485 kts | 55° |
| 2026-04-27 18:50 | 70.95769 | -105.79143 | 37068 ft | 485 kts | 56° |
| 2026-04-27 18:50 | 70.99335 | -105.61757 | 37071 ft | 485 kts | 56° |
| 2026-04-27 18:51 | 71.02910 | -105.44183 | 37068 ft | 485 kts | 56° |
| 2026-04-27 18:51 | 71.06470 | -105.26536 | 37068 ft | 485 kts | 56° |
| 2026-04-27 18:52 | 71.10016 | -105.08812 | 37066 ft | 485 kts | 56° |
| 2026-04-27 18:53 | 71.15278 | -104.82232 | 37069 ft | 485 kts | 56° |
| 2026-04-27 18:53 | 71.18775 | -104.64381 | 37067 ft | 485 kts | 57° |
| 2026-04-27 18:54 | 71.22260 | -104.46445 | 37066 ft | 485 kts | 57° |
| 2026-04-27 18:54 | 71.25724 | -104.28460 | 37069 ft | 485 kts | 57° |
| 2026-04-27 18:55 | 71.29148 | -104.10532 | 37070 ft | 485 kts | 57° |
| 2026-04-27 18:55 | 71.32582 | -103.92398 | 37073 ft | 485 kts | 57° |
| 2026-04-27 18:56 | 71.36000 | -103.74190 | 37074 ft | 485 kts | 58° |